createdAt,value
2019-01-26T00:01:46.382Z,4.75
2019-01-26T00:04:15.996Z,4.50
2019-01-26T00:06:45.619Z,5.25
2019-01-26T00:09:15.322Z,4.20
2019-01-26T00:11:45.011Z,5.25
2019-01-26T00:14:14.645Z,4.67
2019-01-26T00:16:46.742Z,5.40
2019-01-26T00:19:16.355Z,4.62
2019-01-26T00:21:46.166Z,4.35
2019-01-26T00:24:15.795Z,4.80
2019-01-26T00:26:45.399Z,6.95
2019-01-26T00:29:15.017Z,4.10
2019-01-26T00:31:44.624Z,3.30
2019-01-26T00:34:14.308Z,5.03
2019-01-26T00:36:43.946Z,5.55
2019-01-26T00:39:13.569Z,3.40
2019-01-26T00:41:45.658Z,4.03
2019-01-26T00:44:15.290Z,4.20
2019-01-26T00:46:44.929Z,3.90
2019-01-26T00:49:14.561Z,3.85
2019-01-26T00:51:44.175Z,3.40
2019-01-26T00:54:13.785Z,4.25
2019-01-26T00:56:43.407Z,4.62
2019-01-26T00:59:13.169Z,4.62
2019-01-26T01:01:42.856Z,4.00
2019-01-26T01:04:12.630Z,4.15
2019-01-26T01:06:42.247Z,3.65
2019-01-26T01:09:11.865Z,4.00
2019-01-26T01:11:41.579Z,4.05
2019-01-26T01:14:11.285Z,4.97
2019-01-26T01:16:40.912Z,5.55
2019-01-26T01:19:10.682Z,5.53
2019-01-26T01:21:40.384Z,3.33
2019-01-26T01:24:10.066Z,2.92
2019-01-26T01:26:42.659Z,3.10
2019-01-26T01:29:12.352Z,2.75
2019-01-26T01:31:46.660Z,3.70
2019-01-26T01:34:16.848Z,3.72
2019-01-26T01:36:46.469Z,2.62
2019-01-26T01:39:16.299Z,4.12
2019-01-26T01:41:46.016Z,4.28
2019-01-26T01:44:15.623Z,3.95
2019-01-26T01:46:45.246Z,2.70
2019-01-26T01:49:14.853Z,3.10
2019-01-26T01:51:44.459Z,2.87
2019-01-26T01:54:14.076Z,5.08
2019-01-26T01:56:43.776Z,2.95
2019-01-26T01:59:13.392Z,4.03
2019-01-26T02:01:43.084Z,4.20
2019-01-26T02:04:18.905Z,3.67
2019-01-26T02:06:48.503Z,2.83
2019-01-26T02:09:18.134Z,4.35
2019-01-26T02:11:47.749Z,3.80
2019-01-26T02:14:17.446Z,3.65
2019-01-26T02:16:50.205Z,4.17
2019-01-26T02:19:18.376Z,2.30
2019-01-26T02:21:48.079Z,4.47
2019-01-26T02:24:17.709Z,3.37
2019-01-26T02:26:47.396Z,2.95
2019-01-26T02:29:19.448Z,2.30
2019-01-26T02:31:49.081Z,3.50
2019-01-26T02:34:23.278Z,3.95
2019-01-26T02:36:52.885Z,3.27
2019-01-26T02:39:22.503Z,4.00
2019-01-26T02:41:52.202Z,3.15
2019-01-26T02:44:21.831Z,2.65
2019-01-26T02:46:57.804Z,3.33
2019-01-26T02:49:22.762Z,3.45
2019-01-26T02:51:52.375Z,3.45
2019-01-26T02:54:22.031Z,3.75
2019-01-26T02:56:53.500Z,2.20
2019-01-26T02:59:24.749Z,3.50
2019-01-26T03:01:54.360Z,2.20
2019-01-26T03:04:24.010Z,3.05
2019-01-26T03:06:53.773Z,3.40
2019-01-26T03:09:23.426Z,4.05
2019-01-26T03:11:53.047Z,3.05
2019-01-26T03:14:22.671Z,3.20
2019-01-26T03:16:52.277Z,3.33
2019-01-26T03:19:21.903Z,3.12
2019-01-26T03:21:51.539Z,3.27
2019-01-26T03:24:22.262Z,3.20
2019-01-26T03:26:53.909Z,1.62
2019-01-26T03:29:23.531Z,3.50
2019-01-26T03:31:53.193Z,3.77
2019-01-26T03:34:22.795Z,4.25
2019-01-26T03:36:53.401Z,3.50
2019-01-26T03:39:22.997Z,2.98
2019-01-26T03:41:52.689Z,2.42
2019-01-26T03:44:22.312Z,2.52
2019-01-26T03:46:51.979Z,2.37
2019-01-26T03:49:21.609Z,2.15
2019-01-26T03:51:51.228Z,3.10
2019-01-26T03:54:20.904Z,2.72
2019-01-26T03:56:50.526Z,1.85
2019-01-26T03:59:20.293Z,2.80
2019-01-26T04:01:50.152Z,2.40
2019-01-26T04:04:21.600Z,2.67
2019-01-26T04:06:51.216Z,3.58
2019-01-26T04:09:20.910Z,3.95
2019-01-26T04:11:50.521Z,3.90
2019-01-26T04:14:23.602Z,2.02
2019-01-26T04:16:53.204Z,4.65
2019-01-26T04:19:23.632Z,2.70
2019-01-26T04:21:53.265Z,3.90
2019-01-26T04:24:22.884Z,2.55
2019-01-26T04:26:52.558Z,1.95
2019-01-26T04:29:22.172Z,3.17
2019-01-26T04:31:51.792Z,2.70
2019-01-26T04:34:21.613Z,2.95
2019-01-26T04:36:51.230Z,3.15
2019-01-26T04:39:20.992Z,3.27
2019-01-26T04:41:50.631Z,2.70
2019-01-26T04:44:20.357Z,2.47
2019-01-26T04:46:49.966Z,3.72
2019-01-26T04:49:19.596Z,2.15
2019-01-26T04:51:49.299Z,2.58
2019-01-26T04:54:18.941Z,4.35
2019-01-26T04:56:49.541Z,2.10
2019-01-26T04:59:19.188Z,2.30
2019-01-26T05:01:48.854Z,2.05
2019-01-26T05:04:18.588Z,2.50
2019-01-26T05:06:48.195Z,2.25
2019-01-26T05:09:19.296Z,1.77
2019-01-26T05:11:48.916Z,2.45
2019-01-26T05:14:21.388Z,2.10
2019-01-26T05:16:50.996Z,1.82
2019-01-26T05:19:20.748Z,4.60
2019-01-26T05:22:01.970Z,2.12
2019-01-26T05:24:31.585Z,2.67
2019-01-26T05:27:01.304Z,1.95
2019-01-26T05:29:30.919Z,2.12
2019-01-26T05:32:00.531Z,2.50
2019-01-26T05:34:31.198Z,2.37
2019-01-26T05:37:00.821Z,1.50
2019-01-26T05:39:32.605Z,1.60
2019-01-26T05:42:02.314Z,2.65
2019-01-26T05:44:31.999Z,2.05
2019-01-26T05:47:01.616Z,2.25
2019-01-26T05:49:31.229Z,2.40
2019-01-26T05:52:00.847Z,3.55
2019-01-26T05:54:30.458Z,2.50
2019-01-26T05:57:00.083Z,2.20
2019-01-26T05:59:29.718Z,2.10
2019-01-26T06:01:59.412Z,2.80
2019-01-26T06:04:29.024Z,2.58
2019-01-26T06:06:58.718Z,2.05
2019-01-26T06:09:28.375Z,3.60
2019-01-26T06:11:58.015Z,2.72
2019-01-26T06:14:27.643Z,1.60
2019-01-26T06:16:57.252Z,2.27
2019-01-26T06:19:27.828Z,2.05
2019-01-26T06:21:57.456Z,2.35
2019-01-26T06:24:27.073Z,1.75
2019-01-26T06:26:56.675Z,2.42
2019-01-26T06:29:26.306Z,1.75
2019-01-26T06:31:55.956Z,1.75
2019-01-26T06:34:25.581Z,2.58
2019-01-26T06:36:55.197Z,3.35
2019-01-26T06:39:24.797Z,2.17
2019-01-26T06:41:54.412Z,2.40
2019-01-26T06:44:24.033Z,2.10
2019-01-26T06:46:53.658Z,1.95
2019-01-26T06:49:23.369Z,2.62
2019-01-26T06:51:55.747Z,1.55
2019-01-26T06:54:25.532Z,1.75
2019-01-26T06:56:58.089Z,1.75
2019-01-26T06:59:27.739Z,2.12
2019-01-26T07:01:57.679Z,1.00
2019-01-26T07:04:47.595Z,2.30
2019-01-26T07:07:18.885Z,5.00
2019-01-26T07:09:48.502Z,1.90
2019-01-26T07:12:19.231Z,1.57
2019-01-26T07:14:48.938Z,1.10
2019-01-26T07:17:18.562Z,2.15
2019-01-26T07:19:48.237Z,3.35
2019-01-26T07:22:17.869Z,2.02
2019-01-26T07:24:47.484Z,2.10
2019-01-26T07:27:17.278Z,1.85
2019-01-26T07:29:46.903Z,1.20
2019-01-26T07:32:18.164Z,1.90
2019-01-26T07:34:47.789Z,3.85
2019-01-26T07:37:17.783Z,3.65
2019-01-26T07:39:47.520Z,1.80
2019-01-26T07:42:17.163Z,1.05
2019-01-26T07:44:49.539Z,1.75
2019-01-26T07:47:19.168Z,2.05
2019-01-26T07:49:49.121Z,1.77
2019-01-26T07:52:18.782Z,2.20
2019-01-26T07:54:48.425Z,1.95
2019-01-26T07:57:19.049Z,2.00
2019-01-26T07:59:48.677Z,2.10
2019-01-26T08:02:18.417Z,2.60
2019-01-26T08:04:48.066Z,2.10
2019-01-26T08:07:17.675Z,1.62
2019-01-26T08:09:48.577Z,2.47
2019-01-26T08:12:19.803Z,1.65
2019-01-26T08:14:49.452Z,1.20
2019-01-26T08:17:20.777Z,2.37
2019-01-26T08:19:53.242Z,1.77
2019-01-26T08:22:22.865Z,1.67
2019-01-26T08:24:55.167Z,1.70
2019-01-26T08:27:24.796Z,1.60
2019-01-26T08:29:54.417Z,2.47
2019-01-26T08:32:24.117Z,1.62
2019-01-26T08:34:53.735Z,2.72
2019-01-26T08:37:23.347Z,1.77
2019-01-26T08:39:52.975Z,2.20
2019-01-26T08:42:22.602Z,2.67
2019-01-26T08:44:52.258Z,1.62
2019-01-26T08:47:21.920Z,2.58
2019-01-26T08:49:51.553Z,2.12
2019-01-26T08:52:21.426Z,2.12
2019-01-26T08:54:51.081Z,10.58
2019-01-26T08:57:20.809Z,25.60
2019-01-26T08:59:50.554Z,34.38
2019-01-26T09:02:37.835Z,54.75
2019-01-26T09:05:09.724Z,87.45
2019-01-26T09:07:39.365Z,121.20
2019-01-26T09:10:09.136Z,150.72
2019-01-26T09:12:38.794Z,189.57
2019-01-26T09:15:09.657Z,218.50
2019-01-26T09:17:39.298Z,212.30
2019-01-26T09:20:11.724Z,195.85
2019-01-26T09:22:42.884Z,183.20
2019-01-26T09:25:13.051Z,192.53
2019-01-26T09:27:42.911Z,182.65
2019-01-26T09:30:13.243Z,178.68
2019-01-26T09:32:42.922Z,161.85
2019-01-26T09:35:12.705Z,159.93
2019-01-26T09:37:42.515Z,164.22
2019-01-26T09:40:12.473Z,155.05
2019-01-26T09:42:42.259Z,149.75
2019-01-26T09:45:13.283Z,157.18
2019-01-26T09:47:42.987Z,144.40
2019-01-26T09:50:13.194Z,148.07
2019-01-26T09:52:42.843Z,134.90
2019-01-26T09:55:12.646Z,134.93
2019-01-26T09:57:44.341Z,129.78
2019-01-26T10:00:16.173Z,130.40
2019-01-26T10:02:45.821Z,128.95
2019-01-26T10:05:15.826Z,126.87
2019-01-26T10:07:47.454Z,115.47
2019-01-26T10:10:17.524Z,112.97
2019-01-26T10:12:47.445Z,119.50
2019-01-26T10:15:17.252Z,111.35
2019-01-26T10:17:47.139Z,108.72
2019-01-26T10:20:21.957Z,102.07
2019-01-26T10:22:51.702Z,103.65
2019-01-26T10:25:21.525Z,112.25
2019-01-26T10:27:51.163Z,98.33
2019-01-26T10:30:27.919Z,95.12
2019-01-26T10:32:57.542Z,98.45
2019-01-26T10:35:39.447Z,96.08
2019-01-26T10:38:15.175Z,81.20
2019-01-26T10:41:02.246Z,81.82
2019-01-26T10:43:33.601Z,78.65
2019-01-26T10:46:04.486Z,71.15
2019-01-26T10:48:35.275Z,83.33
2019-01-26T10:51:09.662Z,70.72
2019-01-26T10:53:39.917Z,71.37
2019-01-26T10:56:09.558Z,75.32
2019-01-26T10:58:39.185Z,63.92
2019-01-26T11:01:08.849Z,72.67
2019-01-26T11:03:38.787Z,66.92
2019-01-26T11:06:10.255Z,65.00
2019-01-26T11:08:39.913Z,66.10
2019-01-26T11:11:09.617Z,66.62
2019-01-26T11:13:41.068Z,54.40
2019-01-26T11:16:13.529Z,59.73
2019-01-26T11:18:43.231Z,64.67
2019-01-26T11:21:12.946Z,61.05
2019-01-26T11:23:42.572Z,62.10
2019-01-26T11:26:12.201Z,63.73
2019-01-26T11:28:41.834Z,56.18
2019-01-26T11:31:12.919Z,61.42
2019-01-26T11:33:42.537Z,52.75
2019-01-26T11:36:14.830Z,51.28
2019-01-26T11:38:45.682Z,52.17
2019-01-26T11:41:16.953Z,56.30
2019-01-26T11:43:46.583Z,47.95
2019-01-26T11:46:27.996Z,55.83
2019-01-26T11:48:58.509Z,52.30
2019-01-26T11:51:43.334Z,57.50
2019-01-26T11:54:13.101Z,47.67
2019-01-26T11:56:50.846Z,43.60
2019-01-26T11:59:22.103Z,50.25
2019-01-26T12:02:20.477Z,55.30
2019-01-26T12:04:54.931Z,44.70
2019-01-26T12:07:29.959Z,42.03
2019-01-26T12:10:02.409Z,39.08
2019-01-26T12:12:34.724Z,39.85
2019-01-26T12:15:09.174Z,44.60
2019-01-26T12:17:38.807Z,46.20
2019-01-26T12:20:11.427Z,40.38
2019-01-26T12:22:43.147Z,40.58
2019-01-26T12:25:14.572Z,41.42
2019-01-26T12:27:44.359Z,40.67
2019-01-26T12:30:16.857Z,35.90
2019-01-26T12:32:46.544Z,40.90
2019-01-26T12:35:16.474Z,33.20
2019-01-26T12:37:46.106Z,36.75
2019-01-26T12:40:15.881Z,37.50
2019-01-26T12:42:45.517Z,34.60
2019-01-26T12:45:17.749Z,34.90
2019-01-26T12:47:47.446Z,36.50
2019-01-26T12:50:17.225Z,31.35
2019-01-26T12:52:46.836Z,35.08
2019-01-26T12:55:16.624Z,35.05
2019-01-26T12:57:46.390Z,33.88
2019-01-26T13:00:18.220Z,34.13
2019-01-26T13:02:49.386Z,31.55
2019-01-26T13:05:19.367Z,27.85
2019-01-26T13:07:54.399Z,29.18
2019-01-26T13:10:27.474Z,25.05
2019-01-26T13:12:57.242Z,26.82
2019-01-26T13:15:27.006Z,31.77
2019-01-26T13:17:56.702Z,29.98
2019-01-26T13:20:26.547Z,26.23
2019-01-26T13:22:56.241Z,28.55
2019-01-26T13:25:25.946Z,27.25
2019-01-26T13:27:55.564Z,25.68
2019-01-26T13:30:25.232Z,30.70
2019-01-26T13:32:55.906Z,27.98
2019-01-26T13:35:25.687Z,25.37
2019-01-26T13:37:55.325Z,25.23
2019-01-26T13:40:25.944Z,25.50
2019-01-26T13:42:55.860Z,27.20
2019-01-26T13:45:25.573Z,19.87
2019-01-26T13:47:56.623Z,22.30
2019-01-26T13:50:26.333Z,20.70
2019-01-26T13:52:56.229Z,23.85
2019-01-26T13:55:25.980Z,18.87
2019-01-26T13:57:55.696Z,22.62
2019-01-26T14:00:27.774Z,21.37
2019-01-26T14:02:57.472Z,22.42
2019-01-26T14:05:27.125Z,21.97
2019-01-26T14:07:57.827Z,21.82
2019-01-26T14:10:27.528Z,20.55
2019-01-26T14:12:57.174Z,22.13
2019-01-26T14:15:27.081Z,19.50
2019-01-26T14:17:56.767Z,16.77
2019-01-26T14:20:28.995Z,20.55
2019-01-26T14:22:59.669Z,19.02
2019-01-26T14:25:30.665Z,19.35
2019-01-26T14:28:00.360Z,18.48
2019-01-26T14:30:39.401Z,16.12
2019-01-26T14:33:09.080Z,16.25
2019-01-26T14:35:38.845Z,18.23
2019-01-26T14:38:08.611Z,18.80
2019-01-26T14:40:38.238Z,16.30
2019-01-26T14:43:08.016Z,17.55
2019-01-26T14:45:37.629Z,18.70
2019-01-26T14:48:07.262Z,18.80
2019-01-26T14:50:36.897Z,15.60
2019-01-26T14:53:06.702Z,14.98
2019-01-26T14:55:36.414Z,16.35
2019-01-26T14:58:07.511Z,16.40
2019-01-26T15:00:39.620Z,17.55
2019-01-26T15:03:09.329Z,13.50
2019-01-26T15:05:39.031Z,16.48
2019-01-26T15:08:08.745Z,13.35
2019-01-26T15:10:38.363Z,13.50
2019-01-26T15:13:07.984Z,15.32
2019-01-26T15:15:37.605Z,13.55
2019-01-26T15:18:07.296Z,12.25
2019-01-26T15:20:38.959Z,13.25
2019-01-26T15:23:08.876Z,11.25
2019-01-26T15:25:38.492Z,11.03
2019-01-26T15:28:12.286Z,11.22
2019-01-26T15:30:43.126Z,13.93
2019-01-26T15:33:13.640Z,13.00
2019-01-26T15:35:43.273Z,11.70
2019-01-26T15:38:33.109Z,10.45
2019-01-26T15:41:03.871Z,11.35
2019-01-26T15:43:35.610Z,9.83
2019-01-26T15:46:05.346Z,11.90
2019-01-26T15:48:34.959Z,8.78
2019-01-26T15:51:04.681Z,12.58
2019-01-26T15:53:34.321Z,10.98
2019-01-26T15:56:04.375Z,17.07
2019-01-26T15:58:35.704Z,10.75
2019-01-26T16:01:07.347Z,10.32
2019-01-26T16:03:37.004Z,10.55
2019-01-26T16:06:06.709Z,9.35
2019-01-26T16:08:36.324Z,11.88
2019-01-26T16:11:07.650Z,10.55
2019-01-26T16:13:37.281Z,9.88
2019-01-26T16:16:11.493Z,10.35
2019-01-26T16:18:41.245Z,11.20
2019-01-26T16:21:10.935Z,9.85
2019-01-26T16:23:40.562Z,9.10
2019-01-26T16:26:10.191Z,7.78
2019-01-26T16:28:39.805Z,9.85
2019-01-26T16:31:09.506Z,9.90
2019-01-26T16:33:40.355Z,7.80
2019-01-26T16:36:11.586Z,7.60
2019-01-26T16:38:41.309Z,7.03
2019-01-26T16:41:10.923Z,10.38
2019-01-26T16:43:42.239Z,8.55
2019-01-26T16:46:11.867Z,7.47
2019-01-26T16:48:41.479Z,7.30
2019-01-26T16:51:12.580Z,9.28
2019-01-26T16:53:42.211Z,8.35
2019-01-26T16:56:11.831Z,6.17
2019-01-26T16:58:41.705Z,9.58
2019-01-26T17:01:11.408Z,6.70
2019-01-26T17:03:41.012Z,8.83
2019-01-26T17:06:10.762Z,5.90
2019-01-26T17:08:40.371Z,6.83
2019-01-26T17:11:10.976Z,7.55
2019-01-26T17:13:40.606Z,8.45
2019-01-26T17:16:10.242Z,7.33
2019-01-26T17:18:46.025Z,6.40
2019-01-26T17:21:11.312Z,6.90
2019-01-26T17:23:40.920Z,8.60
2019-01-26T17:26:10.530Z,7.47
2019-01-26T17:28:40.147Z,7.42
2019-01-26T17:31:09.774Z,8.55
2019-01-26T17:33:43.101Z,8.43
2019-01-26T17:36:12.729Z,8.08
2019-01-26T17:38:42.428Z,7.12
2019-01-26T17:41:12.039Z,7.00
2019-01-26T17:43:41.665Z,6.90
2019-01-26T17:46:11.297Z,8.60
2019-01-26T17:48:41.021Z,5.95
2019-01-26T17:51:10.648Z,6.10
2019-01-26T17:53:40.257Z,4.62
2019-01-26T17:56:09.878Z,6.28
2019-01-26T17:58:39.487Z,7.40
2019-01-26T18:01:14.128Z,7.12
2019-01-26T18:03:43.938Z,6.53
2019-01-26T18:06:17.834Z,6.65
2019-01-26T18:08:47.461Z,7.62
2019-01-26T18:11:17.147Z,4.60
2019-01-26T18:13:46.765Z,6.45
2019-01-26T18:16:16.375Z,4.95
2019-01-26T18:18:46.056Z,5.45
2019-01-26T18:21:15.663Z,4.85
2019-01-26T18:23:45.436Z,4.80
2019-01-26T18:26:15.121Z,5.25
2019-01-26T18:28:44.744Z,6.60
2019-01-26T18:31:14.351Z,6.62
2019-01-26T18:33:43.974Z,5.28
2019-01-26T18:36:16.674Z,5.95
2019-01-26T18:38:48.591Z,6.55
2019-01-26T18:41:18.211Z,3.90
2019-01-26T18:43:47.833Z,3.35
2019-01-26T18:46:17.636Z,3.95
2019-01-26T18:48:47.248Z,6.85
2019-01-26T18:51:16.963Z,4.12
2019-01-26T18:53:46.651Z,3.47
2019-01-26T18:56:16.327Z,4.42
2019-01-26T18:58:47.141Z,4.42
2019-01-26T19:01:16.752Z,5.25
2019-01-26T19:04:16.611Z,4.03
2019-01-26T19:06:46.225Z,6.42
2019-01-26T19:09:15.912Z,3.27
2019-01-26T19:11:45.600Z,3.75
2019-01-26T19:14:15.225Z,5.53
2019-01-26T19:16:44.919Z,4.28
2019-01-26T19:19:15.377Z,5.97
2019-01-26T19:21:45.013Z,4.08
2019-01-26T19:24:14.653Z,4.45
2019-01-26T19:26:44.277Z,3.80
2019-01-26T19:29:13.947Z,5.62
2019-01-26T19:31:43.571Z,3.83
2019-01-26T19:34:13.186Z,3.60
2019-01-26T19:36:42.900Z,3.35
2019-01-26T19:39:13.815Z,4.03
2019-01-26T19:41:43.431Z,4.58
2019-01-26T19:44:13.133Z,3.95
2019-01-26T19:46:42.835Z,3.67
2019-01-26T19:49:12.459Z,3.40
2019-01-26T19:51:42.169Z,4.40
2019-01-26T19:54:11.781Z,4.17
2019-01-26T19:56:41.417Z,4.72
2019-01-26T19:59:12.159Z,5.40
2019-01-26T20:01:41.789Z,3.87
2019-01-26T20:04:11.586Z,4.53
2019-01-26T20:06:41.286Z,2.95
2019-01-26T20:09:11.330Z,4.00
2019-01-26T20:11:41.083Z,4.17
2019-01-26T20:14:10.785Z,2.65
2019-01-26T20:16:41.367Z,2.95
2019-01-26T20:19:10.997Z,3.72
2019-01-26T20:21:40.702Z,3.80
2019-01-26T20:24:10.314Z,3.85
2019-01-26T20:26:39.916Z,2.98
2019-01-26T20:29:09.550Z,4.58
2019-01-26T20:31:39.169Z,2.80
2019-01-26T20:34:08.861Z,2.75
2019-01-26T20:36:38.475Z,2.47
2019-01-26T20:39:09.283Z,4.28
2019-01-26T20:41:38.909Z,2.80
2019-01-26T20:44:08.587Z,2.60
2019-01-26T20:46:38.351Z,2.80
2019-01-26T20:49:07.982Z,4.00
2019-01-26T20:51:37.600Z,3.08
2019-01-26T20:54:07.283Z,4.08
2019-01-26T20:56:36.889Z,3.77
2019-01-26T20:59:06.651Z,2.77
2019-01-26T21:01:36.270Z,3.60
2019-01-26T21:04:06.027Z,3.30
2019-01-26T21:06:35.703Z,3.22
2019-01-26T21:09:08.354Z,3.37
2019-01-26T21:11:38.031Z,4.12
2019-01-26T21:14:07.749Z,4.55
2019-01-26T21:16:37.361Z,3.77
2019-01-26T21:19:07.125Z,5.15
2019-01-26T21:21:39.463Z,3.70
2019-01-26T21:24:10.707Z,3.12
2019-01-26T21:26:40.331Z,2.45
2019-01-26T21:29:10.073Z,2.70
2019-01-26T21:31:39.703Z,5.50
2019-01-26T21:34:09.383Z,3.35
2019-01-26T21:36:38.991Z,3.85
2019-01-26T21:39:09.253Z,3.25
2019-01-26T21:41:38.869Z,3.15
2019-01-26T21:44:08.566Z,2.80
2019-01-26T21:46:39.151Z,3.75
2019-01-26T21:49:08.756Z,2.65
2019-01-26T21:51:39.031Z,3.08
2019-01-26T21:54:08.857Z,3.30
2019-01-26T21:56:38.469Z,3.62
2019-01-26T21:59:08.100Z,2.72
2019-01-26T22:01:37.786Z,3.25
2019-01-26T22:04:07.387Z,3.95
2019-01-26T22:06:37.157Z,2.70
2019-01-26T22:09:09.071Z,3.55
2019-01-26T22:11:38.681Z,3.27
2019-01-26T22:14:08.574Z,3.08
2019-01-26T22:16:38.198Z,3.75
2019-01-26T22:19:07.827Z,2.85
2019-01-26T22:21:37.609Z,3.47
2019-01-26T22:24:07.219Z,4.30
2019-01-26T22:26:36.841Z,2.87
2019-01-26T22:29:06.547Z,2.40
2019-01-26T22:31:36.155Z,2.25
2019-01-26T22:34:05.917Z,3.90
2019-01-26T22:36:35.603Z,3.60
2019-01-26T22:39:08.520Z,3.02
2019-01-26T22:41:38.196Z,3.30
2019-01-26T22:44:07.896Z,2.92
2019-01-26T22:46:37.581Z,2.15
2019-01-26T22:49:07.192Z,3.40
2019-01-26T22:51:36.918Z,2.35
2019-01-26T22:54:06.610Z,2.25
2019-01-26T22:56:36.233Z,2.05
2019-01-26T22:59:05.929Z,1.67
2019-01-26T23:01:41.269Z,2.40
2019-01-26T23:04:32.084Z,2.15
2019-01-26T23:07:46.434Z,3.62
2019-01-26T23:11:18.512Z,2.33
2019-01-26T23:14:14.796Z,1.52
2019-01-26T23:17:03.817Z,1.55
2019-01-26T23:19:53.810Z,1.30
2019-01-26T23:22:59.650Z,1.90
2019-01-26T23:25:50.745Z,2.83
2019-01-26T23:28:54.234Z,2.75
2019-01-26T23:31:23.935Z,2.92
2019-01-26T23:33:56.549Z,2.35
2019-01-26T23:36:26.388Z,1.67
2019-01-26T23:39:02.165Z,2.67
2019-01-26T23:41:27.315Z,2.20
2019-01-26T23:43:56.941Z,3.08
2019-01-26T23:46:26.642Z,1.90
2019-01-26T23:48:56.271Z,2.00
2019-01-26T23:51:25.951Z,3.00
2019-01-26T23:53:55.568Z,1.95
2019-01-26T23:56:25.329Z,2.15
2019-01-26T23:58:54.983Z,2.60
